createdAt,value
2019-02-07T00:01:27.091Z,-1.70
2019-02-07T00:03:54.599Z,-1.70
2019-02-07T00:06:22.268Z,-1.60
2019-02-07T00:08:49.928Z,-1.60
2019-02-07T00:11:17.155Z,-1.50
2019-02-07T00:13:44.501Z,-1.60
2019-02-07T00:16:11.728Z,-1.50
2019-02-07T00:18:39.461Z,-1.50
2019-02-07T00:21:07.020Z,-1.50
2019-02-07T00:23:34.247Z,-1.30
2019-02-07T00:26:01.480Z,-1.30
2019-02-07T00:28:28.760Z,-1.20
2019-02-07T00:30:56.092Z,-1.30
2019-02-07T00:33:23.322Z,-1.30
2019-02-07T00:35:52.452Z,-1.30
2019-02-07T00:38:19.680Z,-1.30
2019-02-07T00:40:47.403Z,-1.20
2019-02-07T00:43:14.631Z,-1.10
2019-02-07T00:45:41.978Z,-1.10
2019-02-07T00:48:09.203Z,-1.20
2019-02-07T00:50:36.802Z,-1.10
2019-02-07T00:53:04.778Z,-1.20
2019-02-07T00:55:32.004Z,-1.20
2019-02-07T00:57:59.223Z,-1.30
2019-02-07T01:00:26.505Z,-1.30
2019-02-07T01:02:53.934Z,-1.40
2019-02-07T01:05:22.210Z,-1.20
2019-02-07T01:07:50.267Z,-1.00
2019-02-07T01:10:22.648Z,-0.90
2019-02-07T01:12:49.882Z,-0.90
2019-02-07T01:15:17.835Z,-0.90
2019-02-07T01:17:45.168Z,-0.80
2019-02-07T01:20:13.621Z,-0.80
2019-02-07T01:22:41.160Z,-0.80
2019-02-07T01:25:11.471Z,-0.80
2019-02-07T01:27:38.708Z,-0.80
2019-02-07T01:30:07.725Z,-0.80
2019-02-07T01:32:35.085Z,-0.70
2019-02-07T01:35:03.238Z,-0.80
2019-02-07T01:37:33.619Z,-0.90
2019-02-07T01:40:01.066Z,-0.90
2019-02-07T01:42:28.695Z,-0.90
2019-02-07T01:44:55.923Z,-0.90
2019-02-07T01:47:23.241Z,-0.80
2019-02-07T01:49:50.769Z,-0.80
2019-02-07T01:52:18.207Z,-0.80
2019-02-07T01:54:45.932Z,-0.80
2019-02-07T01:57:13.159Z,-0.70
2019-02-07T01:59:40.803Z,-0.70
2019-02-07T02:02:08.071Z,-0.70
2019-02-07T02:04:35.295Z,-0.60
2019-02-07T02:07:02.554Z,-0.60
2019-02-07T02:09:29.795Z,-0.50
2019-02-07T02:11:57.053Z,-0.60
2019-02-07T02:14:24.413Z,-0.60
2019-02-07T02:16:51.778Z,-0.70
2019-02-07T02:19:19.003Z,-0.70
2019-02-07T02:21:46.261Z,-0.70
2019-02-07T02:24:13.583Z,-0.50
2019-02-07T02:26:40.847Z,-0.40
2019-02-07T02:29:08.093Z,-0.40
2019-02-07T02:31:35.442Z,-0.40
2019-02-07T02:34:03.330Z,-0.30
2019-02-07T02:36:30.891Z,-0.20
2019-02-07T02:38:58.213Z,-0.20
2019-02-07T02:41:25.570Z,-0.20
2019-02-07T02:43:52.812Z,-0.20
2019-02-07T02:46:20.099Z,-0.20
2019-02-07T02:48:47.423Z,-0.30
2019-02-07T02:51:14.688Z,-0.40
2019-02-07T02:53:42.504Z,-0.40
2019-02-07T02:56:10.098Z,-0.40
2019-02-07T02:58:37.419Z,-0.50
2019-02-07T03:01:27.079Z,-0.50
2019-02-07T03:04:04.044Z,-0.60
2019-02-07T03:06:49.432Z,-0.70
2019-02-07T03:09:29.820Z,-0.60
2019-02-07T03:12:05.136Z,-0.60
2019-02-07T03:14:52.039Z,-0.50
2019-02-07T03:17:48.386Z,-0.40
2019-02-07T03:20:36.810Z,-0.30
2019-02-07T03:23:29.596Z,-0.40
2019-02-07T03:26:15.444Z,-0.30
2019-02-07T03:29:14.472Z,-0.40
2019-02-07T03:32:07.513Z,-0.30
2019-02-07T03:34:50.696Z,-0.20
2019-02-07T03:37:49.641Z,-0.20
2019-02-07T03:40:39.811Z,-0.20
2019-02-07T03:43:23.182Z,-0.20
2019-02-07T03:46:10.429Z,-0.20
2019-02-07T03:48:45.935Z,-0.10
2019-02-07T03:51:51.279Z,-0.10
2019-02-07T03:54:44.292Z,0.00
2019-02-07T03:57:39.986Z,-0.10
2019-02-07T04:00:28.640Z,0.00
2019-02-07T04:03:27.456Z,0.00
2019-02-07T04:06:17.116Z,0.00
2019-02-07T04:09:03.864Z,0.00
2019-02-07T04:11:59.897Z,0.20
2019-02-07T04:14:45.376Z,0.20
2019-02-07T04:17:30.732Z,0.40
2019-02-07T04:20:32.488Z,0.30
2019-02-07T04:23:28.163Z,0.30
2019-02-07T04:26:20.955Z,0.50
2019-02-07T04:28:56.856Z,0.60
2019-02-07T04:31:29.800Z,0.60
2019-02-07T04:34:34.450Z,0.60
2019-02-07T04:37:20.253Z,0.50
2019-02-07T04:40:14.245Z,0.40
2019-02-07T04:42:52.106Z,0.20
2019-02-07T04:45:44.993Z,0.30
2019-02-07T04:48:30.481Z,0.20
2019-02-07T04:51:15.808Z,0.20
2019-02-07T04:54:02.868Z,0.30
2019-02-07T04:56:50.015Z,0.30
2019-02-07T04:59:35.383Z,0.30
2019-02-07T05:02:20.512Z,0.30
2019-02-07T05:04:58.386Z,0.40
2019-02-07T05:07:47.747Z,0.40
2019-02-07T05:10:37.994Z,0.50
2019-02-07T05:13:33.744Z,0.60
2019-02-07T05:16:23.659Z,0.60
2019-02-07T05:19:10.409Z,0.60
2019-02-07T05:22:05.739Z,0.60
2019-02-07T05:25:01.832Z,0.80
2019-02-07T05:27:41.030Z,0.80
2019-02-07T05:30:45.229Z,0.70
2019-02-07T05:33:27.448Z,0.70
2019-02-07T05:36:12.968Z,0.60
2019-02-07T05:38:58.205Z,0.80
2019-02-07T05:41:44.051Z,0.90
2019-02-07T05:44:28.779Z,0.90
2019-02-07T05:47:15.538Z,0.90
2019-02-07T05:50:00.832Z,0.90
2019-02-07T05:52:59.884Z,0.90
2019-02-07T05:55:45.583Z,0.90
2019-02-07T05:58:47.985Z,0.90
2019-02-07T06:01:33.311Z,1.00
2019-02-07T06:04:05.442Z,1.10
2019-02-07T06:07:04.135Z,1.20
2019-02-07T06:09:49.058Z,1.30
2019-02-07T06:12:42.019Z,1.40
2019-02-07T06:15:29.320Z,1.60
2019-02-07T06:18:05.033Z,1.70
2019-02-07T06:20:50.671Z,1.80
2019-02-07T06:23:43.020Z,1.90
2019-02-07T06:26:28.581Z,2.00
2019-02-07T06:29:17.935Z,2.10
2019-02-07T06:32:03.195Z,2.20
2019-02-07T06:34:52.463Z,2.10
2019-02-07T06:37:45.453Z,2.20
2019-02-07T06:40:38.517Z,2.30
2019-02-07T06:43:23.990Z,2.40
2019-02-07T06:46:01.660Z,2.70
2019-02-07T06:48:54.611Z,2.80
2019-02-07T06:51:38.319Z,2.80
2019-02-07T06:54:24.444Z,2.70
2019-02-07T06:57:16.747Z,2.70
2019-02-07T06:59:51.167Z,2.80
2019-02-07T07:02:30.632Z,2.90
2019-02-07T07:05:16.123Z,2.90
2019-02-07T07:07:54.640Z,2.80
2019-02-07T07:10:44.137Z,2.80
2019-02-07T07:13:30.173Z,2.90
2019-02-07T07:16:17.222Z,2.90
2019-02-07T07:19:06.595Z,2.70
2019-02-07T07:21:56.707Z,2.90
2019-02-07T07:24:42.139Z,3.00
2019-02-07T07:27:22.513Z,2.90
2019-02-07T07:30:09.592Z,2.90
2019-02-07T07:33:06.379Z,3.10
2019-02-07T07:35:41.571Z,3.10
2019-02-07T07:38:29.043Z,3.30
2019-02-07T07:41:21.838Z,3.20
2019-02-07T07:44:04.601Z,3.20
2019-02-07T07:46:51.320Z,3.20
2019-02-07T07:49:46.815Z,3.30
2019-02-07T07:52:33.848Z,3.20
2019-02-07T07:55:21.987Z,3.20
2019-02-07T07:58:09.037Z,3.20
2019-02-07T08:00:56.122Z,3.30
2019-02-07T08:03:54.973Z,3.20
2019-02-07T08:06:33.945Z,3.20
2019-02-07T08:09:16.347Z,3.30
2019-02-07T08:12:15.951Z,3.30
2019-02-07T08:14:55.351Z,3.30
2019-02-07T08:18:00.814Z,3.40
2019-02-07T08:20:50.217Z,3.30
2019-02-07T08:23:28.376Z,3.40
2019-02-07T08:26:14.211Z,3.40
2019-02-07T08:29:04.703Z,3.30
2019-02-07T08:31:40.764Z,3.30
2019-02-07T08:34:33.297Z,3.30
2019-02-07T08:37:17.133Z,3.30
2019-02-07T08:40:09.847Z,3.40
2019-02-07T08:42:49.809Z,3.30
2019-02-07T08:45:29.133Z,3.30
2019-02-07T08:48:14.332Z,3.40
2019-02-07T08:51:12.723Z,3.40
2019-02-07T08:54:00.223Z,3.40
2019-02-07T08:56:47.280Z,3.40
2019-02-07T08:59:34.100Z,3.40
2019-02-07T09:02:18.704Z,3.40
2019-02-07T09:05:12.273Z,3.30
2019-02-07T09:08:03.384Z,3.30
2019-02-07T09:10:48.813Z,3.30
2019-02-07T09:13:40.382Z,3.30
2019-02-07T09:16:36.274Z,3.40
2019-02-07T09:19:38.561Z,3.50
2019-02-07T09:22:24.359Z,3.40
2019-02-07T09:25:17.012Z,3.60
2019-02-07T09:28:02.537Z,3.50
2019-02-07T09:31:01.431Z,3.60
2019-02-07T09:34:06.097Z,3.60
2019-02-07T09:36:58.552Z,3.70
2019-02-07T09:39:48.076Z,3.70
2019-02-07T09:42:44.004Z,3.60
2019-02-07T09:45:44.492Z,3.60
2019-02-07T09:48:29.816Z,3.60
2019-02-07T09:51:22.263Z,3.60
2019-02-07T09:54:08.400Z,3.60
2019-02-07T09:56:52.560Z,3.70
2019-02-07T09:59:37.769Z,3.50
2019-02-07T10:02:17.559Z,3.50
2019-02-07T10:05:04.433Z,3.40
2019-02-07T10:07:54.567Z,3.40
2019-02-07T10:10:53.837Z,3.40
2019-02-07T10:13:46.496Z,3.40
2019-02-07T10:16:39.616Z,3.50
2019-02-07T10:19:26.354Z,3.50
2019-02-07T10:22:11.803Z,3.50
2019-02-07T10:24:58.543Z,3.60
2019-02-07T10:27:43.940Z,3.70
2019-02-07T10:30:36.637Z,3.70
2019-02-07T10:33:25.037Z,3.70
2019-02-07T10:36:03.917Z,3.70
2019-02-07T10:38:56.605Z,3.70
2019-02-07T10:41:43.489Z,3.70
2019-02-07T10:44:33.478Z,3.70
2019-02-07T10:47:30.541Z,3.80
2019-02-07T10:50:29.637Z,3.90
2019-02-07T10:53:19.739Z,3.90
2019-02-07T10:56:17.372Z,3.90
2019-02-07T10:59:00.356Z,3.90
2019-02-07T11:01:47.680Z,3.90
2019-02-07T11:04:33.094Z,4.00
2019-02-07T11:07:29.349Z,4.00
2019-02-07T11:10:14.121Z,4.00
2019-02-07T11:13:14.986Z,4.10
2019-02-07T11:16:00.247Z,4.10
2019-02-07T11:19:04.965Z,4.10
2019-02-07T11:21:51.732Z,4.00
2019-02-07T11:24:41.803Z,4.10
2019-02-07T11:27:28.579Z,4.30
2019-02-07T11:30:17.831Z,4.20
2019-02-07T11:32:51.263Z,4.20
2019-02-07T11:35:36.396Z,4.30
2019-02-07T11:38:26.452Z,4.30
2019-02-07T11:41:16.049Z,4.30
2019-02-07T11:44:01.439Z,4.30
2019-02-07T11:47:04.957Z,4.30
2019-02-07T11:49:41.512Z,4.30
2019-02-07T11:52:37.602Z,4.30
2019-02-07T11:55:17.600Z,4.40
2019-02-07T11:58:10.672Z,4.60
2019-02-07T12:01:06.600Z,4.50
2019-02-07T12:03:52.155Z,4.60
2019-02-07T12:06:38.999Z,4.60
2019-02-07T12:09:30.716Z,4.50
2019-02-07T12:12:16.145Z,4.60
2019-02-07T12:15:13.683Z,4.50
2019-02-07T12:17:59.075Z,4.60
2019-02-07T12:20:48.679Z,4.80
2019-02-07T12:23:26.567Z,4.70
2019-02-07T12:26:08.883Z,4.60
2019-02-07T12:28:55.443Z,4.70
2019-02-07T12:31:44.593Z,4.70
2019-02-07T12:34:46.499Z,4.80
2019-02-07T12:37:31.883Z,4.90
2019-02-07T12:40:17.165Z,4.90
2019-02-07T12:43:02.420Z,4.90
2019-02-07T12:45:49.228Z,4.90
2019-02-07T12:48:41.634Z,4.80
2019-02-07T12:51:31.178Z,4.90
2019-02-07T12:54:26.902Z,5.00
2019-02-07T12:57:22.932Z,5.00
2019-02-07T13:00:12.644Z,5.00
2019-02-07T13:03:07.956Z,5.00
2019-02-07T13:05:53.514Z,4.90
2019-02-07T13:08:40.311Z,5.10
2019-02-07T13:11:30.088Z,5.30
2019-02-07T13:14:14.301Z,5.30
2019-02-07T13:17:00.074Z,5.30
2019-02-07T13:19:40.737Z,5.40
2019-02-07T13:22:31.428Z,5.50
2019-02-07T13:25:07.159Z,5.60
2019-02-07T13:27:52.665Z,5.60
2019-02-07T13:30:42.094Z,5.60
2019-02-07T13:33:38.035Z,5.60
2019-02-07T13:36:24.779Z,5.60
2019-02-07T13:39:06.138Z,5.50
2019-02-07T13:41:43.177Z,5.40
2019-02-07T13:44:45.283Z,5.50
2019-02-07T13:47:30.827Z,5.50
2019-02-07T13:50:08.398Z,5.60
2019-02-07T13:53:03.987Z,5.60
2019-02-07T13:55:50.727Z,5.70
2019-02-07T13:58:36.449Z,5.60
2019-02-07T14:01:22.579Z,5.60
2019-02-07T14:04:08.189Z,5.60
2019-02-07T14:07:04.446Z,5.60
2019-02-07T14:09:39.486Z,5.60
2019-02-07T14:12:25.493Z,5.50
2019-02-07T14:15:20.925Z,5.50
2019-02-07T14:18:26.040Z,5.60
2019-02-07T14:21:22.073Z,5.50
2019-02-07T14:24:07.605Z,5.60
2019-02-07T14:26:52.807Z,5.60
2019-02-07T14:29:42.127Z,5.50
2019-02-07T14:32:16.378Z,5.60
2019-02-07T14:35:02.184Z,5.60
2019-02-07T14:37:58.092Z,5.70
2019-02-07T14:40:37.735Z,5.70
2019-02-07T14:43:26.136Z,5.50
2019-02-07T14:46:11.357Z,5.60
2019-02-07T14:48:38.646Z,5.60
2019-02-07T14:51:06.311Z,5.60
2019-02-07T14:53:34.128Z,5.70
2019-02-07T14:56:01.456Z,5.70
2019-02-07T14:58:28.863Z,5.70
2019-02-07T15:00:56.082Z,5.80
2019-02-07T15:03:24.143Z,5.70
2019-02-07T15:05:51.481Z,5.70
2019-02-07T15:08:18.896Z,5.60
2019-02-07T15:10:46.128Z,5.70
2019-02-07T15:13:13.347Z,5.80
2019-02-07T15:15:40.571Z,5.70
2019-02-07T15:18:08.032Z,5.70
2019-02-07T15:20:35.695Z,5.70
2019-02-07T15:23:02.942Z,5.70
2019-02-07T15:25:30.288Z,5.90
2019-02-07T15:27:57.955Z,6.00
2019-02-07T15:30:25.500Z,6.00
2019-02-07T15:32:52.733Z,5.90
2019-02-07T15:35:23.317Z,5.90
2019-02-07T15:37:50.561Z,6.10
2019-02-07T15:40:20.621Z,6.00
2019-02-07T15:42:48.151Z,6.10
2019-02-07T15:45:15.811Z,6.10
2019-02-07T15:47:43.131Z,6.20
2019-02-07T15:50:22.806Z,6.20
2019-02-07T15:52:52.123Z,6.20
2019-02-07T15:55:20.186Z,6.10
2019-02-07T15:57:47.704Z,6.10
2019-02-07T16:00:45.324Z,6.00
2019-02-07T16:03:18.408Z,6.10
2019-02-07T16:05:45.776Z,6.10
2019-02-07T16:08:12.998Z,6.00
2019-02-07T16:10:40.371Z,6.00
2019-02-07T16:13:07.592Z,6.00
2019-02-07T16:15:34.860Z,5.90
2019-02-07T16:18:02.105Z,5.60
2019-02-07T16:20:29.772Z,5.60
2019-02-07T16:22:59.012Z,5.60
2019-02-07T16:25:26.512Z,5.60
2019-02-07T16:27:53.823Z,5.60
2019-02-07T16:30:21.952Z,5.50
2019-02-07T16:32:49.369Z,5.30
2019-02-07T16:35:16.787Z,5.20
2019-02-07T16:37:44.096Z,5.30
2019-02-07T16:40:12.284Z,5.40
2019-02-07T16:42:39.509Z,5.30
2019-02-07T16:45:10.043Z,5.20
2019-02-07T16:47:37.265Z,5.00
2019-02-07T16:50:06.503Z,4.90
2019-02-07T16:52:34.129Z,5.00
2019-02-07T16:55:01.443Z,5.10
2019-02-07T16:57:28.983Z,5.10
2019-02-07T16:59:56.261Z,5.10
2019-02-07T17:02:24.040Z,5.00
2019-02-07T17:04:51.333Z,5.00
2019-02-07T17:07:18.657Z,5.00
2019-02-07T17:09:45.871Z,5.10
2019-02-07T17:12:13.581Z,5.10
2019-02-07T17:14:40.804Z,5.10
2019-02-07T17:17:08.133Z,5.10
2019-02-07T17:19:35.348Z,5.10
2019-02-07T17:22:02.641Z,5.00
2019-02-07T17:24:29.942Z,5.00
2019-02-07T17:26:57.296Z,4.80
2019-02-07T17:29:24.605Z,4.70
2019-02-07T17:31:52.279Z,4.60
2019-02-07T17:34:19.508Z,4.30
2019-02-07T17:36:47.863Z,4.40
2019-02-07T17:39:15.246Z,4.30
2019-02-07T17:41:43.001Z,4.30
2019-02-07T17:44:10.418Z,4.30
2019-02-07T17:46:38.221Z,4.00
2019-02-07T17:49:05.632Z,3.80
2019-02-07T17:51:32.920Z,3.70
2019-02-07T17:54:00.837Z,3.40
2019-02-07T17:56:28.211Z,3.30
2019-02-07T17:58:55.455Z,3.20
2019-02-07T18:01:22.886Z,3.10
2019-02-07T18:03:50.611Z,2.90
2019-02-07T18:06:18.408Z,2.90
2019-02-07T18:08:46.714Z,2.70
2019-02-07T18:11:14.102Z,2.70
2019-02-07T18:13:41.331Z,2.60
2019-02-07T18:16:08.718Z,2.50
2019-02-07T18:18:36.264Z,2.50
2019-02-07T18:21:04.129Z,2.50
2019-02-07T18:23:31.351Z,2.40
2019-02-07T18:25:58.636Z,2.50
2019-02-07T18:28:25.911Z,2.50
2019-02-07T18:30:53.305Z,2.70
2019-02-07T18:33:20.640Z,2.70
2019-02-07T18:35:48.018Z,2.60
2019-02-07T18:38:15.260Z,2.60
2019-02-07T18:40:42.990Z,2.60
2019-02-07T18:43:10.311Z,2.50
2019-02-07T18:45:37.739Z,2.50
2019-02-07T18:48:05.463Z,2.50
2019-02-07T18:50:34.792Z,2.50
2019-02-07T18:53:02.020Z,2.60
2019-02-07T18:55:29.354Z,2.80
2019-02-07T18:57:56.992Z,3.20
2019-02-07T19:00:26.569Z,3.40
2019-02-07T19:02:53.988Z,3.40
2019-02-07T19:05:21.892Z,3.20
2019-02-07T19:07:49.120Z,3.20
2019-02-07T19:10:18.523Z,3.20
2019-02-07T19:12:45.973Z,3.30
2019-02-07T19:15:16.428Z,3.40
2019-02-07T19:17:43.754Z,3.30
2019-02-07T19:20:13.587Z,3.20
2019-02-07T19:22:40.967Z,3.20
2019-02-07T19:25:08.755Z,3.10
2019-02-07T19:27:36.854Z,3.10
2019-02-07T19:30:09.699Z,3.10
2019-02-07T19:32:37.311Z,3.00
2019-02-07T19:35:05.323Z,2.80
2019-02-07T19:37:32.685Z,2.70
2019-02-07T19:40:00.104Z,2.60
2019-02-07T19:42:27.481Z,2.60
2019-02-07T19:44:55.175Z,2.50
2019-02-07T19:47:22.626Z,2.50
2019-02-07T19:49:50.257Z,2.60
2019-02-07T19:52:17.541Z,2.40
2019-02-07T19:54:44.776Z,2.30
2019-02-07T19:57:12.155Z,2.30
2019-02-07T19:59:39.383Z,2.10
2019-02-07T20:02:07.051Z,2.10
2019-02-07T20:04:34.367Z,2.10
2019-02-07T20:07:01.643Z,2.00
2019-02-07T20:09:29.382Z,2.10
2019-02-07T20:11:57.253Z,2.10
2019-02-07T20:14:24.635Z,2.10
2019-02-07T20:16:52.016Z,2.10
2019-02-07T20:19:19.347Z,2.20
2019-02-07T20:21:48.057Z,2.10
2019-02-07T20:24:15.723Z,2.10
2019-02-07T20:26:43.508Z,2.10
2019-02-07T20:29:10.835Z,2.20
2019-02-07T20:31:38.219Z,2.10
2019-02-07T20:34:06.151Z,2.00
2019-02-07T20:36:33.483Z,2.10
2019-02-07T20:39:01.025Z,2.20
2019-02-07T20:41:28.360Z,2.10
2019-02-07T20:43:55.679Z,2.40
2019-02-07T20:46:23.003Z,2.40
2019-02-07T20:48:50.975Z,2.20
2019-02-07T20:51:19.151Z,2.20
2019-02-07T20:53:46.483Z,2.40
2019-02-07T20:56:13.716Z,2.50
2019-02-07T20:58:41.099Z,2.70
2019-02-07T21:01:08.451Z,2.80
2019-02-07T21:03:36.539Z,2.90
2019-02-07T21:06:04.068Z,2.80
2019-02-07T21:08:31.704Z,2.70
2019-02-07T21:10:58.948Z,2.70
2019-02-07T21:13:26.227Z,3.00
2019-02-07T21:15:53.572Z,3.00
2019-02-07T21:18:21.175Z,3.20
2019-02-07T21:20:48.839Z,3.30
2019-02-07T21:23:16.181Z,3.40
2019-02-07T21:25:46.084Z,3.50
2019-02-07T21:28:13.730Z,3.40
2019-02-07T21:30:41.059Z,3.30
2019-02-07T21:33:08.403Z,3.40
2019-02-07T21:35:36.031Z,3.50
2019-02-07T21:38:04.567Z,3.60
2019-02-07T21:40:31.995Z,3.70
2019-02-07T21:43:00.172Z,3.80
2019-02-07T21:45:27.996Z,3.90
2019-02-07T21:47:56.005Z,4.10
2019-02-07T21:50:24.415Z,4.00
2019-02-07T21:52:52.033Z,4.30
2019-02-07T21:55:20.639Z,4.30
2019-02-07T21:57:47.915Z,4.40
2019-02-07T22:00:20.923Z,4.50
2019-02-07T22:02:48.808Z,4.50
2019-02-07T22:05:16.132Z,4.50
2019-02-07T22:07:43.496Z,4.40
2019-02-07T22:10:11.960Z,4.30
2019-02-07T22:12:39.367Z,4.40
2019-02-07T22:15:09.404Z,4.30
2019-02-07T22:17:36.664Z,4.20
2019-02-07T22:20:07.615Z,4.10
2019-02-07T22:22:35.240Z,3.90
2019-02-07T22:25:03.058Z,3.90
2019-02-07T22:27:30.368Z,4.00
2019-02-07T22:29:57.683Z,4.00
2019-02-07T22:32:24.913Z,4.00
2019-02-07T22:34:52.260Z,4.00
2019-02-07T22:37:20.013Z,4.00
2019-02-07T22:39:47.341Z,3.90
2019-02-07T22:42:14.667Z,3.80
2019-02-07T22:44:41.904Z,3.70
2019-02-07T22:47:09.135Z,3.60
2019-02-07T22:49:36.380Z,3.60
2019-02-07T22:52:04.215Z,3.50
2019-02-07T22:54:31.455Z,3.40
2019-02-07T22:56:58.993Z,3.50
2019-02-07T22:59:26.326Z,3.50
2019-02-07T23:01:55.291Z,3.50
2019-02-07T23:04:23.579Z,3.60
2019-02-07T23:06:50.906Z,3.60
2019-02-07T23:09:18.635Z,3.70
2019-02-07T23:11:45.869Z,3.80
2019-02-07T23:14:13.606Z,3.90
2019-02-07T23:16:40.932Z,3.90
2019-02-07T23:19:08.175Z,3.90
2019-02-07T23:21:35.483Z,3.90
2019-02-07T23:24:03.812Z,3.70
2019-02-07T23:26:31.032Z,3.70
2019-02-07T23:28:58.261Z,3.70
2019-02-07T23:31:26.067Z,3.70
2019-02-07T23:33:53.329Z,3.70
2019-02-07T23:36:20.691Z,3.70
2019-02-07T23:38:48.263Z,3.60
2019-02-07T23:41:15.483Z,3.60
2019-02-07T23:43:46.153Z,3.60
2019-02-07T23:46:11.857Z,3.70
2019-02-07T23:48:39.308Z,3.60
2019-02-07T23:51:06.601Z,3.60
2019-02-07T23:53:34.043Z,3.70
2019-02-07T23:56:01.376Z,3.80
2019-02-07T23:58:28.695Z,3.80
